Time;durP1;ratioP1;P1;durP2;ratioP2;P2;SDS_P1;SDS_P2;PMS_P1;PMS_P2;Temp;Humidity;BMP_temperature;BMP_pressure;BME280_temperature;BME280_humidity;BME280_pressure;Samples;Min_cycle;Max_cycle;Signal;HPM_P1;HPM_P2
2024/01/14 00:01:43;;;;;;;;;;;-2.90;87.90;;;;;;5011754;28;82447;-44
2024/01/14 00:04:08;;;;;;;;;;;-2.90;87.90;;;;;;5010378;28;82932;-44
2024/01/14 00:06:34;;;;;;;;;;;-2.90;88.00;;;;;;5011593;28;83030;-44
2024/01/14 00:09:00;;;;;;;;;;;-2.90;87.80;;;;;;5010313;28;81958;-45
2024/01/14 00:11:25;;;;;;;;;;;-2.90;87.80;;;;;;5014380;28;83989;-45
2024/01/14 00:13:51;;;;;;;;;;;-2.90;87.80;;;;;;5010654;28;82268;-44
2024/01/14 00:16:16;;;;;;;;;;;-2.90;87.80;;;;;;5011112;28;81995;-45
2024/01/14 00:18:42;;;;;;;;;;;-3.00;87.80;;;;;;5011712;28;81769;-45
2024/01/14 00:21:08;;;;;;;;;;;-3.00;87.80;;;;;;5011758;28;82414;-46
2024/01/14 00:23:34;;;;;;;;;;;-3.00;87.80;;;;;;5008504;28;82030;-43
2024/01/14 00:25:59;;;;;;;;;;;-3.00;88.30;;;;;;5010863;28;81965;-44
2024/01/14 00:28:25;;;;;;;;;;;-3.00;87.90;;;;;;5010327;28;83541;-45
2024/01/14 00:30:51;;;;;;;;;;;-3.00;87.80;;;;;;5011564;28;81922;-44
2024/01/14 00:33:17;;;;;;;;;;;-3.00;87.80;;;;;;5010275;28;82077;-45
2024/01/14 00:35:42;;;;;;;;;;;-3.00;87.70;;;;;;5008954;28;81910;-44
2024/01/14 00:38:08;;;;;;;;;;;-3.00;87.70;;;;;;5001927;28;83214;-43
2024/01/14 00:40:34;;;;;;;;;;;-3.00;87.70;;;;;;5010286;28;82687;-44
2024/01/14 00:43:00;;;;;;;;;;;-3.00;87.80;;;;;;5010744;28;82127;-44
2024/01/14 00:45:26;;;;;;;;;;;-3.10;87.70;;;;;;5011956;28;82550;-44
2024/01/14 00:47:51;;;;;;;;;;;-3.10;87.80;;;;;;5009113;28;83670;-44
2024/01/14 00:50:17;;;;;;;;;;;-3.10;87.60;;;;;;5009943;28;82124;-44
2024/01/14 00:52:42;;;;;;;;;;;-3.10;87.60;;;;;;5011890;28;82852;-44
2024/01/14 00:55:09;;;;;;;;;;;-3.10;87.70;;;;;;5003597;28;82000;-44
2024/01/14 00:57:34;;;;;;;;;;;-3.10;87.60;;;;;;5010629;28;81797;-44
2024/01/14 01:00:00;;;;;;;;;;;-3.10;87.70;;;;;;5010969;28;82467;-44
2024/01/14 01:02:25;;;;;;;;;;;-3.10;87.70;;;;;;5011100;28;81930;-44
2024/01/14 01:04:51;;;;;;;;;;;-3.20;87.60;;;;;;5010550;28;81783;-45
2024/01/14 01:07:17;;;;;;;;;;;-3.10;87.70;;;;;;5010744;28;82339;-45
2024/01/14 01:09:42;;;;;;;;;;;-3.10;87.60;;;;;;5008706;28;81228;-44
2024/01/14 01:12:08;;;;;;;;;;;-3.20;87.50;;;;;;5010735;28;81883;-46
2024/01/14 01:14:33;;;;;;;;;;;-3.10;87.60;;;;;;5012747;28;83567;-43
2024/01/14 01:16:59;;;;;;;;;;;-3.20;87.60;;;;;;5009379;28;82566;-44
2024/01/14 01:19:24;;;;;;;;;;;-3.20;87.60;;;;;;5010619;28;82475;-44
2024/01/14 01:21:51;;;;;;;;;;;-3.20;87.60;;;;;;5010326;28;81963;-45
2024/01/14 01:24:17;;;;;;;;;;;-3.20;87.50;;;;;;5008673;28;82779;-44
2024/01/14 01:26:42;;;;;;;;;;;-3.20;87.60;;;;;;5010223;28;82375;-45
2024/01/14 01:29:08;;;;;;;;;;;-3.20;87.50;;;;;;5010639;28;82314;-44
2024/01/14 01:31:33;;;;;;;;;;;-3.20;87.50;;;;;;5010521;28;81994;-45
2024/01/14 01:33:59;;;;;;;;;;;-3.20;87.60;;;;;;5009232;28;81728;-44
2024/01/14 01:36:25;;;;;;;;;;;-3.20;87.50;;;;;;5012042;28;81993;-45
2024/01/14 01:38:50;;;;;;;;;;;-3.20;87.50;;;;;;5009591;28;82368;-44
2024/01/14 01:41:16;;;;;;;;;;;-3.20;87.40;;;;;;5009092;28;83046;-44
2024/01/14 01:43:41;;;;;;;;;;;-3.20;87.40;;;;;;5010017;28;82577;-44
2024/01/14 01:46:07;;;;;;;;;;;-3.30;87.40;;;;;;5009967;28;82790;-46
2024/01/14 01:48:33;;;;;;;;;;;-3.30;87.40;;;;;;5009788;28;81991;-44
2024/01/14 01:50:59;;;;;;;;;;;-3.30;87.40;;;;;;5009934;28;82930;-45
2024/01/14 01:53:25;;;;;;;;;;;-3.30;87.40;;;;;;5009299;28;82641;-45
2024/01/14 01:55:52;;;;;;;;;;;-3.30;87.50;;;;;;5008974;28;82626;-44
2024/01/14 01:58:18;;;;;;;;;;;-3.30;87.40;;;;;;5011852;28;81899;-44
2024/01/14 02:00:43;;;;;;;;;;;-3.30;87.40;;;;;;5010031;28;82774;-44
2024/01/14 02:03:10;;;;;;;;;;;-3.30;87.40;;;;;;5009302;28;82552;-44
2024/01/14 02:05:38;;;;;;;;;;;-3.30;87.40;;;;;;5006014;28;83353;-44
2024/01/14 02:08:03;;;;;;;;;;;-3.40;87.40;;;;;;5009556;28;82004;-45
2024/01/14 02:10:29;;;;;;;;;;;-3.40;87.30;;;;;;5008963;28;82892;-44
2024/01/14 02:12:55;;;;;;;;;;;-3.40;87.30;;;;;;5008700;28;82240;-44
2024/01/14 02:15:21;;;;;;;;;;;-3.40;87.40;;;;;;5006975;28;81963;-45
2024/01/14 02:17:46;;;;;;;;;;;-3.40;87.30;;;;;;5009555;28;83484;-44
2024/01/14 02:20:14;;;;;;;;;;;-3.40;87.30;;;;;;5009486;28;83571;-45
2024/01/14 02:22:40;;;;;;;;;;;-3.40;87.30;;;;;;5009007;28;81237;-43
2024/01/14 02:25:07;;;;;;;;;;;-3.40;87.30;;;;;;5008231;28;83399;-44
2024/01/14 02:27:33;;;;;;;;;;;-3.40;87.30;;;;;;5009821;28;81929;-44
2024/01/14 02:29:59;;;;;;;;;;;-3.50;87.20;;;;;;5009237;28;82859;-45
2024/01/14 02:32:25;;;;;;;;;;;-3.40;87.30;;;;;;5005531;28;82328;-44
2024/01/14 02:34:51;;;;;;;;;;;-3.50;87.30;;;;;;5006607;28;81936;-44
2024/01/14 02:37:16;;;;;;;;;;;-3.50;87.30;;;;;;5009152;28;82170;-45
2024/01/14 02:39:42;;;;;;;;;;;-3.40;87.30;;;;;;5003646;28;82612;-44
2024/01/14 02:42:07;;;;;;;;;;;-3.50;87.20;;;;;;5012369;28;81854;-44
2024/01/14 02:44:33;;;;;;;;;;;-3.50;87.20;;;;;;5009056;28;82608;-44
2024/01/14 02:46:59;;;;;;;;;;;-3.50;87.10;;;;;;5009881;28;81410;-44
2024/01/14 02:49:24;;;;;;;;;;;-3.50;87.20;;;;;;5008095;28;82013;-45
2024/01/14 02:51:50;;;;;;;;;;;-3.50;87.20;;;;;;5008741;28;82030;-44
2024/01/14 02:54:15;;;;;;;;;;;-3.50;87.20;;;;;;5007896;28;82899;-44
2024/01/14 02:56:41;;;;;;;;;;;-3.50;87.20;;;;;;5008957;28;82704;-43
2024/01/14 02:59:06;;;;;;;;;;;-3.50;87.20;;;;;;5006840;28;83565;-44
2024/01/14 03:01:32;;;;;;;;;;;-3.60;87.10;;;;;;5011880;28;82001;-45
2024/01/14 03:03:57;;;;;;;;;;;-3.50;87.10;;;;;;5009060;28;81827;-44
2024/01/14 03:06:23;;;;;;;;;;;-3.50;87.10;;;;;;5009096;28;81902;-44
2024/01/14 03:08:49;;;;;;;;;;;-3.60;87.20;;;;;;5009168;28;82056;-44
2024/01/14 03:11:14;;;;;;;;;;;-3.60;87.10;;;;;;5005708;28;81973;-44
2024/01/14 03:13:40;;;;;;;;;;;-3.60;87.10;;;;;;5008834;28;81864;-44
2024/01/14 03:16:05;;;;;;;;;;;-3.60;87.20;;;;;;5009770;28;81928;-44
2024/01/14 03:18:31;;;;;;;;;;;-3.60;87.20;;;;;;5008083;28;86334;-44
2024/01/14 03:20:57;;;;;;;;;;;-3.60;87.20;;;;;;5011702;28;81986;-44
2024/01/14 03:23:22;;;;;;;;;;;-3.60;87.10;;;;;;5013873;28;81890;-43
2024/01/14 03:25:48;;;;;;;;;;;-3.60;87.10;;;;;;5009873;28;82020;-44
2024/01/14 03:28:14;;;;;;;;;;;-3.60;87.10;;;;;;5012327;28;82875;-43
2024/01/14 03:30:39;;;;;;;;;;;-3.60;87.10;;;;;;5010470;28;83372;-46
2024/01/14 03:33:05;;;;;;;;;;;-3.70;87.10;;;;;;5009224;28;81904;-44
2024/01/14 03:35:31;;;;;;;;;;;-3.70;87.00;;;;;;5012268;28;82735;-44
2024/01/14 03:37:56;;;;;;;;;;;-3.70;87.00;;;;;;5010783;28;82443;-44
2024/01/14 03:40:22;;;;;;;;;;;-3.70;87.10;;;;;;5010631;28;82025;-44
2024/01/14 03:42:47;;;;;;;;;;;-3.70;87.00;;;;;;5011359;28;82921;-44
2024/01/14 03:45:13;;;;;;;;;;;-3.70;87.00;;;;;;5013201;28;84969;-44
2024/01/14 03:47:38;;;;;;;;;;;-3.70;87.10;;;;;;5012669;28;82147;-44
2024/01/14 03:50:04;;;;;;;;;;;-3.80;87.00;;;;;;5011092;28;81869;-44
2024/01/14 03:52:29;;;;;;;;;;;-3.70;87.10;;;;;;5011843;28;81754;-44
2024/01/14 03:54:55;;;;;;;;;;;-3.80;87.00;;;;;;5011681;28;82255;-44
2024/01/14 03:57:21;;;;;;;;;;;-3.80;87.00;;;;;;5006310;28;82483;-43
2024/01/14 03:59:46;;;;;;;;;;;-3.80;87.00;;;;;;5012499;28;81200;-44
2024/01/14 04:02:12;;;;;;;;;;;-3.80;87.00;;;;;;5012126;28;82521;-44
2024/01/14 04:04:38;;;;;;;;;;;-3.80;86.90;;;;;;5011006;28;82365;-43
2024/01/14 04:07:03;;;;;;;;;;;-3.80;87.00;;;;;;5014000;28;82925;-45
2024/01/14 04:09:29;;;;;;;;;;;-3.80;87.00;;;;;;5010211;28;82345;-44
2024/01/14 04:11:54;;;;;;;;;;;-3.80;87.00;;;;;;5009631;28;82540;-44
2024/01/14 04:14:20;;;;;;;;;;;-3.80;87.50;;;;;;5010404;28;81738;-45
2024/01/14 04:16:45;;;;;;;;;;;-3.80;87.00;;;;;;5011272;28;81854;-43
2024/01/14 04:19:11;;;;;;;;;;;-3.80;86.90;;;;;;5010661;28;81961;-44
2024/01/14 04:21:37;;;;;;;;;;;-3.90;86.80;;;;;;5011444;28;81834;-44
2024/01/14 04:24:02;;;;;;;;;;;-3.90;86.80;;;;;;5011669;28;81621;-44
2024/01/14 04:26:28;;;;;;;;;;;-3.90;86.80;;;;;;5009430;28;82046;-44
2024/01/14 04:28:54;;;;;;;;;;;-3.80;86.90;;;;;;5013463;28;82058;-43
2024/01/14 04:31:20;;;;;;;;;;;-3.90;86.80;;;;;;5010798;28;82918;-43
2024/01/14 04:33:46;;;;;;;;;;;-3.90;86.80;;;;;;5010910;28;83774;-43
2024/01/14 04:36:11;;;;;;;;;;;-3.90;86.90;;;;;;5011348;28;81871;-43
2024/01/14 04:38:37;;;;;;;;;;;-3.90;86.80;;;;;;5011134;28;81924;-44
2024/01/14 04:41:02;;;;;;;;;;;-3.90;86.80;;;;;;5009431;28;81991;-44
2024/01/14 04:43:28;;;;;;;;;;;-3.90;86.80;;;;;;5006586;28;82621;-44
2024/01/14 04:45:54;;;;;;;;;;;-4.00;86.80;;;;;;5010689;28;82158;-44
2024/01/14 04:48:19;;;;;;;;;;;-4.00;86.80;;;;;;5013487;28;83125;-43
2024/01/14 04:50:45;;;;;;;;;;;-4.00;86.80;;;;;;5011387;28;81859;-44
2024/01/14 04:53:11;;;;;;;;;;;-4.00;86.80;;;;;;5007404;28;82206;-43
2024/01/14 04:55:37;;;;;;;;;;;-4.00;86.80;;;;;;5008997;28;84221;-44
2024/01/14 04:58:03;;;;;;;;;;;-4.00;86.80;;;;;;5006281;28;81833;-43
2024/01/14 05:00:29;;;;;;;;;;;-4.00;86.80;;;;;;5010163;28;82032;-44
2024/01/14 05:02:54;;;;;;;;;;;-4.00;86.80;;;;;;5010908;28;82431;-43
2024/01/14 05:05:20;;;;;;;;;;;-4.00;86.80;;;;;;5010510;28;81983;-43
2024/01/14 05:07:45;;;;;;;;;;;-4.00;86.80;;;;;;5006547;28;83833;-45
2024/01/14 05:10:11;;;;;;;;;;;-4.10;86.70;;;;;;5012732;28;83458;-44
2024/01/14 05:12:36;;;;;;;;;;;-4.10;86.80;;;;;;5010348;28;81193;-44
2024/01/14 05:15:03;;;;;;;;;;;-4.10;86.70;;;;;;5006777;28;82247;-44
2024/01/14 05:17:28;;;;;;;;;;;-4.10;86.70;;;;;;5010594;28;81825;-44
2024/01/14 05:19:54;;;;;;;;;;;-4.10;86.70;;;;;;5009252;28;82750;-44
2024/01/14 05:22:19;;;;;;;;;;;-4.10;86.70;;;;;;5008352;28;82977;-43
2024/01/14 05:24:45;;;;;;;;;;;-4.10;86.80;;;;;;5010706;28;81963;-45
2024/01/14 05:27:11;;;;;;;;;;;-4.10;86.70;;;;;;5008568;28;81874;-43
2024/01/14 05:29:40;;;;;;;;;;;-4.10;86.70;;;;;;5008184;28;81924;-45
2024/01/14 05:32:16;;;;;;;;;;;-4.20;86.70;;;;;;5013127;28;81923;-44
2024/01/14 05:34:42;;;;;;;;;;;-4.20;86.70;;;;;;5009552;28;82654;-44
2024/01/14 05:37:08;;;;;;;;;;;-4.20;86.70;;;;;;5010870;28;81451;-44
2024/01/14 05:39:34;;;;;;;;;;;-4.20;86.70;;;;;;5009900;28;82160;-43
2024/01/14 05:41:59;;;;;;;;;;;-4.20;86.70;;;;;;5009100;28;82615;-43
2024/01/14 05:44:25;;;;;;;;;;;-4.20;86.60;;;;;;5009279;28;82951;-45
2024/01/14 05:46:51;;;;;;;;;;;-4.20;86.70;;;;;;5010049;28;84039;-43
2024/01/14 05:49:17;;;;;;;;;;;-4.20;86.70;;;;;;5010151;28;82371;-43
2024/01/14 05:51:42;;;;;;;;;;;-4.20;86.70;;;;;;5009971;28;82002;-43
2024/01/14 05:54:08;;;;;;;;;;;-4.20;86.70;;;;;;5012657;28;83082;-44
2024/01/14 05:56:34;;;;;;;;;;;-4.20;86.70;;;;;;5009356;28;81964;-44
2024/01/14 05:59:00;;;;;;;;;;;-4.30;86.60;;;;;;5005335;28;81867;-45
2024/01/14 06:01:29;;;;;;;;;;;-4.20;86.60;;;;;;5009041;28;84409;-44
2024/01/14 06:03:55;;;;;;;;;;;-4.30;86.60;;;;;;5009951;28;82107;-43
2024/01/14 06:06:20;;;;;;;;;;;-4.30;86.70;;;;;;5010261;28;82308;-45
2024/01/14 06:08:46;;;;;;;;;;;-4.30;86.60;;;;;;5007460;28;83587;-44
2024/01/14 06:11:13;;;;;;;;;;;-4.30;86.70;;;;;;5007232;28;82033;-44
2024/01/14 06:13:44;;;;;;;;;;;-4.30;86.60;;;;;;5009347;28;81860;-43
2024/01/14 06:16:10;;;;;;;;;;;-4.30;86.60;;;;;;5011057;28;83496;-44
2024/01/14 06:18:36;;;;;;;;;;;-4.30;86.60;;;;;;5009933;28;81846;-43
2024/01/14 06:21:02;;;;;;;;;;;-4.30;86.60;;;;;;5005151;28;83562;-44
2024/01/14 06:23:28;;;;;;;;;;;-4.30;86.60;;;;;;5002570;28;81959;-44
2024/01/14 06:25:53;;;;;;;;;;;-4.30;86.60;;;;;;5010212;28;82878;-44
2024/01/14 06:28:19;;;;;;;;;;;-4.30;86.60;;;;;;5006675;28;82476;-44
2024/01/14 06:30:45;;;;;;;;;;;-4.40;86.60;;;;;;5008900;28;82124;-43
2024/01/14 06:33:10;;;;;;;;;;;-4.30;86.50;;;;;;5009212;28;83047;-44
2024/01/14 06:35:36;;;;;;;;;;;-4.30;86.50;;;;;;5008776;28;81879;-43
2024/01/14 06:38:02;;;;;;;;;;;-4.40;86.50;;;;;;5011207;28;82027;-44
2024/01/14 06:40:28;;;;;;;;;;;-4.40;86.50;;;;;;5008902;28;82935;-43
2024/01/14 06:42:53;;;;;;;;;;;-4.30;86.50;;;;;;5008918;28;82081;-43
2024/01/14 06:45:19;;;;;;;;;;;-4.30;86.50;;;;;;5009933;28;81834;-43
2024/01/14 06:47:44;;;;;;;;;;;-4.40;86.90;;;;;;5008958;28;81955;-44
2024/01/14 06:50:10;;;;;;;;;;;-4.40;86.40;;;;;;5009518;28;81312;-45
2024/01/14 06:52:39;;;;;;;;;;;-4.40;86.40;;;;;;5010625;28;82158;-44
2024/01/14 06:55:05;;;;;;;;;;;-4.40;86.40;;;;;;5012906;28;82346;-43
2024/01/14 06:57:31;;;;;;;;;;;-4.40;86.40;;;;;;5014824;28;82708;-43
2024/01/14 07:00:00;;;;;;;;;;;-4.40;86.60;;;;;;5007931;28;82400;-43
2024/01/14 07:02:26;;;;;;;;;;;-4.40;86.40;;;;;;5012494;28;82017;-43
2024/01/14 07:04:51;;;;;;;;;;;-4.40;86.50;;;;;;5010917;28;81949;-44
2024/01/14 07:07:17;;;;;;;;;;;-4.50;86.40;;;;;;5010188;28;82362;-46
2024/01/14 07:09:43;;;;;;;;;;;-4.40;86.50;;;;;;5012367;28;81983;-42
2024/01/14 07:12:09;;;;;;;;;;;-4.50;86.40;;;;;;5011920;28;82883;-45
2024/01/14 07:14:34;;;;;;;;;;;-4.50;86.40;;;;;;5012515;28;81785;-43
2024/01/14 07:17:00;;;;;;;;;;;-4.50;86.50;;;;;;5013000;28;82723;-43
2024/01/14 07:19:25;;;;;;;;;;;-4.50;86.50;;;;;;5014915;28;82009;-43
2024/01/14 07:21:51;;;;;;;;;;;-4.50;86.50;;;;;;5007107;28;83029;-43
2024/01/14 07:24:16;;;;;;;;;;;-4.50;86.50;;;;;;5011956;28;82800;-43
2024/01/14 07:26:42;;;;;;;;;;;-4.50;86.50;;;;;;5012314;28;82317;-43
2024/01/14 07:29:07;;;;;;;;;;;-4.50;86.50;;;;;;5010504;28;81977;-43
2024/01/14 07:31:33;;;;;;;;;;;-4.50;86.50;;;;;;5012418;28;81852;-44
2024/01/14 07:33:59;;;;;;;;;;;-4.50;86.50;;;;;;5010980;28;82927;-43
2024/01/14 07:36:24;;;;;;;;;;;-4.50;86.50;;;;;;5011610;28;83008;-44
2024/01/14 07:38:51;;;;;;;;;;;-4.50;86.60;;;;;;5011516;28;82795;-44
2024/01/14 07:41:16;;;;;;;;;;;-4.50;86.60;;;;;;5014076;28;83406;-43
2024/01/14 07:43:42;;;;;;;;;;;-4.50;86.60;;;;;;5009970;28;81945;-44
2024/01/14 07:46:08;;;;;;;;;;;-4.50;86.60;;;;;;5008326;28;83415;-44
2024/01/14 07:48:34;;;;;;;;;;;-4.50;86.60;;;;;;5009778;28;82071;-44
2024/01/14 07:51:00;;;;;;;;;;;-4.50;86.60;;;;;;5009385;28;82813;-44
2024/01/14 07:53:25;;;;;;;;;;;-4.60;86.60;;;;;;5011942;28;82496;-43
2024/01/14 07:55:51;;;;;;;;;;;-4.60;86.60;;;;;;5012022;28;81965;-43
2024/01/14 07:58:17;;;;;;;;;;;-4.50;86.70;;;;;;5010930;28;81967;-43
2024/01/14 08:00:43;;;;;;;;;;;-4.60;86.60;;;;;;5009040;28;82539;-43
2024/01/14 08:03:09;;;;;;;;;;;-4.50;86.70;;;;;;4666513;28;10001136;-44
2024/01/14 08:05:37;;;;;;;;;;;-4.50;86.60;;;;;;5012160;28;82025;-44
2024/01/14 08:08:03;;;;;;;;;;;-4.60;86.70;;;;;;5011265;28;81898;-44
2024/01/14 08:10:29;;;;;;;;;;;-4.50;86.70;;;;;;5010013;28;83371;-43
2024/01/14 08:12:55;;;;;;;;;;;-4.60;86.50;;;;;;5011392;28;82112;-44
2024/01/14 08:15:20;;;;;;;;;;;-4.50;86.70;;;;;;5008763;28;81863;-44
2024/01/14 08:17:46;;;;;;;;;;;-4.50;86.70;;;;;;5010399;28;83353;-44
2024/01/14 08:20:11;;;;;;;;;;;-4.60;86.70;;;;;;5010735;28;82730;-44
2024/01/14 08:22:37;;;;;;;;;;;-4.60;86.80;;;;;;5010693;28;81835;-45
2024/01/14 08:25:04;;;;;;;;;;;-4.60;86.80;;;;;;5013632;28;82299;-43
2024/01/14 08:27:30;;;;;;;;;;;-4.60;86.80;;;;;;5011937;28;81872;-43
2024/01/14 08:29:55;;;;;;;;;;;-4.60;86.80;;;;;;5007824;28;83835;-44
2024/01/14 08:32:21;;;;;;;;;;;-4.60;86.80;;;;;;5010905;28;81948;-44
2024/01/14 08:34:47;;;;;;;;;;;-4.60;86.70;;;;;;5010912;28;82806;-44
2024/01/14 08:37:12;;;;;;;;;;;-4.60;86.80;;;;;;5010758;28;82349;-45
2024/01/14 08:39:38;;;;;;;;;;;-4.60;86.80;;;;;;5011112;28;81916;-43
2024/01/14 08:42:04;;;;;;;;;;;-4.60;86.80;;;;;;5010251;28;82135;-44
2024/01/14 08:44:29;;;;;;;;;;;-4.60;86.80;;;;;;5010601;28;82439;-45
2024/01/14 08:46:55;;;;;;;;;;;-4.60;86.90;;;;;;5012461;28;82339;-44
2024/01/14 08:49:21;;;;;;;;;;;-4.60;86.90;;;;;;5010119;28;81973;-43
2024/01/14 08:51:46;;;;;;;;;;;-4.60;86.90;;;;;;5008269;28;82008;-44
2024/01/14 08:54:12;;;;;;;;;;;-4.60;87.00;;;;;;5011463;28;81962;-43
2024/01/14 08:56:38;;;;;;;;;;;-4.60;87.00;;;;;;5009283;28;83453;-44
2024/01/14 08:59:03;;;;;;;;;;;-4.60;87.10;;;;;;5010548;28;82792;-44
2024/01/14 09:01:29;;;;;;;;;;;-4.60;87.00;;;;;;5007280;28;83373;-45
2024/01/14 09:03:55;;;;;;;;;;;-4.60;87.00;;;;;;5010271;28;82084;-44
2024/01/14 09:06:20;;;;;;;;;;;-4.60;87.00;;;;;;5011895;28;81890;-46
2024/01/14 09:08:46;;;;;;;;;;;-4.60;86.90;;;;;;5009469;28;83253;-44
2024/01/14 09:11:13;;;;;;;;;;;-4.60;86.80;;;;;;5007341;28;83552;-44
2024/01/14 09:13:38;;;;;;;;;;;-4.60;86.70;;;;;;5009752;28;81811;-44
2024/01/14 09:16:05;;;;;;;;;;;-4.60;86.70;;;;;;5009814;28;81677;-45
2024/01/14 09:18:31;;;;;;;;;;;-4.60;86.70;;;;;;5010443;28;81936;-44
2024/01/14 09:20:56;;;;;;;;;;;-4.50;86.80;;;;;;5010436;28;81828;-44
2024/01/14 09:23:22;;;;;;;;;;;-4.50;86.30;;;;;;5010020;28;82960;-44
2024/01/14 09:25:47;;;;;;;;;;;-4.50;86.40;;;;;;5010642;28;82065;-44
2024/01/14 09:28:13;;;;;;;;;;;-4.50;86.60;;;;;;5013054;28;82609;-43
2024/01/14 09:30:39;;;;;;;;;;;-4.50;86.60;;;;;;5007066;28;82319;-45
2024/01/14 09:33:04;;;;;;;;;;;-4.50;86.40;;;;;;5010009;28;81944;-43
2024/01/14 09:35:30;;;;;;;;;;;-4.50;86.50;;;;;;5006302;28;82406;-44
2024/01/14 09:37:55;;;;;;;;;;;-4.40;86.50;;;;;;5006334;28;82081;-44
2024/01/14 09:40:21;;;;;;;;;;;-4.40;86.40;;;;;;5010595;28;82099;-44
2024/01/14 09:42:49;;;;;;;;;;;-4.50;86.30;;;;;;5010135;28;82276;-44
2024/01/14 09:45:16;;;;;;;;;;;-4.40;86.60;;;;;;5010363;28;81899;-44
2024/01/14 09:47:42;;;;;;;;;;;-4.40;86.30;;;;;;5008859;28;82887;-44
2024/01/14 09:50:08;;;;;;;;;;;-4.40;86.40;;;;;;5012424;28;83511;-44
2024/01/14 09:52:34;;;;;;;;;;;-4.40;86.30;;;;;;5009622;28;81945;-45
2024/01/14 09:55:00;;;;;;;;;;;-4.40;86.50;;;;;;5009333;28;82742;-44
2024/01/14 09:57:28;;;;;;;;;;;-4.40;86.50;;;;;;5009137;28;82056;-44
2024/01/14 09:59:54;;;;;;;;;;;-4.40;86.40;;;;;;5009767;28;81929;-44
2024/01/14 10:02:21;;;;;;;;;;;-4.40;86.50;;;;;;5007058;28;82257;-44
2024/01/14 10:04:46;;;;;;;;;;;-4.40;86.50;;;;;;5006828;28;81287;-43
2024/01/14 10:07:12;;;;;;;;;;;-4.40;87.30;;;;;;5010119;28;82201;-44
2024/01/14 10:09:41;;;;;;;;;;;-4.40;86.50;;;;;;5009091;28;83421;-43
2024/01/14 10:12:07;;;;;;;;;;;-4.40;86.70;;;;;;5008330;28;82770;-45
2024/01/14 10:14:34;;;;;;;;;;;-4.40;86.70;;;;;;5005314;28;82237;-44
2024/01/14 10:17:00;;;;;;;;;;;-4.40;86.80;;;;;;5008228;28;83167;-44
2024/01/14 10:19:25;;;;;;;;;;;-4.40;86.90;;;;;;5009713;28;81817;-44
2024/01/14 10:21:55;;;;;;;;;;;-4.40;86.70;;;;;;5008855;28;82269;-45
2024/01/14 10:24:21;;;;;;;;;;;-4.30;86.90;;;;;;5005413;28;82008;-44
2024/01/14 10:26:50;;;;;;;;;;;-4.40;86.90;;;;;;5011763;28;82922;-44
2024/01/14 10:29:16;;;;;;;;;;;-4.40;87.10;;;;;;5013120;28;82561;-43
2024/01/14 10:31:43;;;;;;;;;;;-4.30;87.00;;;;;;5008597;28;82775;-44
2024/01/14 10:34:08;;;;;;;;;;;-4.40;86.90;;;;;;5014964;28;82121;-45
2024/01/14 10:36:36;;;;;;;;;;;-4.40;86.90;;;;;;5012499;28;82918;-44
2024/01/14 10:39:03;;;;;;;;;;;-4.30;87.10;;;;;;5013150;28;82659;-44
2024/01/14 10:41:28;;;;;;;;;;;-4.30;87.10;;;;;;5012882;28;83465;-44
2024/01/14 10:43:54;;;;;;;;;;;-4.40;87.30;;;;;;5010867;28;82041;-44
2024/01/14 10:46:21;;;;;;;;;;;-4.40;87.40;;;;;;5010735;28;82881;-44
2024/01/14 10:48:49;;;;;;;;;;;-4.40;87.50;;;;;;5009369;28;82516;-43
2024/01/14 10:51:16;;;;;;;;;;;-4.30;87.70;;;;;;5012270;28;81966;-44
2024/01/14 10:53:47;;;;;;;;;;;-4.30;87.50;;;;;;5009654;28;81667;-44
2024/01/14 10:56:15;;;;;;;;;;;-4.40;87.80;;;;;;5015717;28;82368;-44
2024/01/14 10:58:41;;;;;;;;;;;-4.40;87.60;;;;;;5012835;28;82034;-45
2024/01/14 11:01:08;;;;;;;;;;;-4.30;87.80;;;;;;5012019;28;83439;-45
2024/01/14 11:03:34;;;;;;;;;;;-4.30;87.80;;;;;;5011677;28;82222;-45
2024/01/14 11:06:01;;;;;;;;;;;-4.30;88.00;;;;;;5007972;28;82968;-46
2024/01/14 11:08:26;;;;;;;;;;;-4.30;88.00;;;;;;5011117;28;83718;-44
2024/01/14 11:10:53;;;;;;;;;;;-4.30;87.90;;;;;;5012547;28;81507;-44
2024/01/14 11:13:21;;;;;;;;;;;-4.30;88.20;;;;;;5008276;28;82997;-44
2024/01/14 11:15:56;;;;;;;;;;;-4.30;88.40;;;;;;5014127;28;83479;-44
2024/01/14 11:18:31;;;;;;;;;;;-4.30;88.30;;;;;;5005718;28;82806;-45
2024/01/14 11:21:23;;;;;;;;;;;-4.30;88.30;;;;;;5011566;28;82467;-45
2024/01/14 11:23:49;;;;;;;;;;;-4.30;88.70;;;;;;4999356;28;82367;-43
2024/01/14 11:26:14;;;;;;;;;;;-4.30;88.80;;;;;;5008760;28;82993;-44
2024/01/14 11:28:44;;;;;;;;;;;-4.30;89.00;;;;;;5011094;28;83511;-44
2024/01/14 11:31:10;;;;;;;;;;;-4.30;88.80;;;;;;5006045;28;81958;-44
2024/01/14 11:33:41;;;;;;;;;;;-4.30;88.90;;;;;;5011007;28;82923;-46
2024/01/14 11:36:07;;;;;;;;;;;-4.30;89.10;;;;;;5012193;28;82376;-45
2024/01/14 11:38:36;;;;;;;;;;;-4.30;89.40;;;;;;5014256;28;81978;-44
2024/01/14 11:41:20;;;;;;;;;;;-4.30;89.20;;;;;;5010638;28;82402;-44
2024/01/14 11:43:46;;;;;;;;;;;-4.30;89.30;;;;;;5007428;28;81789;-46
2024/01/14 11:46:30;;;;;;;;;;;-4.40;89.60;;;;;;5012297;28;81888;-44
2024/01/14 11:48:56;;;;;;;;;;;-4.30;89.80;;;;;;5008626;28;82333;-45
2024/01/14 11:51:21;;;;;;;;;;;-4.30;89.70;;;;;;5011140;28;82929;-44
2024/01/14 11:53:48;;;;;;;;;;;-4.40;89.90;;;;;;5011746;28;82665;-45
2024/01/14 11:56:27;;;;;;;;;;;-4.30;89.90;;;;;;5009885;28;83654;-45
2024/01/14 11:58:52;;;;;;;;;;;-4.30;89.90;;;;;;5011610;28;81929;-45
2024/01/14 12:01:19;;;;;;;;;;;-4.30;90.00;;;;;;5014856;28;81831;-45
2024/01/14 12:03:45;;;;;;;;;;;-4.30;90.00;;;;;;5009851;28;81990;-44
2024/01/14 12:06:10;;;;;;;;;;;-4.30;90.10;;;;;;5007523;28;82009;-45
2024/01/14 12:08:36;;;;;;;;;;;-4.30;90.10;;;;;;5011795;28;81748;-46
2024/01/14 12:11:03;;;;;;;;;;;-4.30;90.10;;;;;;5010699;28;81902;-45
2024/01/14 12:13:30;;;;;;;;;;;-4.30;90.20;;;;;;5011590;28;82845;-46
2024/01/14 12:15:56;;;;;;;;;;;-4.30;90.20;;;;;;5007542;28;83233;-45
2024/01/14 12:18:21;;;;;;;;;;;-4.30;90.20;;;;;;5010259;28;82025;-45
2024/01/14 12:20:48;;;;;;;;;;;-4.30;90.50;;;;;;5011689;28;81937;-46
2024/01/14 12:23:14;;;;;;;;;;;-4.30;90.20;;;;;;5010453;28;83542;-45
2024/01/14 12:25:40;;;;;;;;;;;-4.30;90.20;;;;;;5011516;28;82913;-45
2024/01/14 12:28:05;;;;;;;;;;;-4.20;90.30;;;;;;5011205;28;83448;-46
2024/01/14 12:30:34;;;;;;;;;;;-4.20;90.30;;;;;;5011383;28;81940;-45
2024/01/14 12:33:03;;;;;;;;;;;-4.20;90.30;;;;;;5011140;28;82952;-46
2024/01/14 12:35:35;;;;;;;;;;;-4.20;90.30;;;;;;5011345;28;82334;-46
2024/01/14 12:38:02;;;;;;;;;;;-4.20;90.30;;;;;;5011086;28;81849;-45
2024/01/14 12:40:28;;;;;;;;;;;-4.20;90.30;;;;;;5010605;28;82822;-45
2024/01/14 12:42:54;;;;;;;;;;;-4.20;90.30;;;;;;5008549;28;82103;-45
2024/01/14 12:45:19;;;;;;;;;;;-4.20;90.30;;;;;;5011820;28;81939;-45
2024/01/14 12:47:54;;;;;;;;;;;-4.20;90.30;;;;;;5009887;28;82820;-45
2024/01/14 12:50:19;;;;;;;;;;;-4.10;90.40;;;;;;5009155;28;82024;-45
2024/01/14 12:52:45;;;;;;;;;;;-4.10;90.40;;;;;;5010808;28;81939;-45
2024/01/14 12:55:19;;;;;;;;;;;-4.10;90.30;;;;;;5010703;28;82237;-45
2024/01/14 12:57:45;;;;;;;;;;;-4.10;90.40;;;;;;5011869;28;81186;-45
2024/01/14 13:00:11;;;;;;;;;;;-4.10;90.40;;;;;;5011250;28;81808;-45
2024/01/14 13:02:36;;;;;;;;;;;-4.10;90.40;;;;;;5010539;28;83095;-46
2024/01/14 13:05:03;;;;;;;;;;;-4.00;90.60;;;;;;5009810;28;82938;-45
2024/01/14 13:07:29;;;;;;;;;;;-4.00;90.50;;;;;;5012260;28;83643;-45
2024/01/14 13:09:55;;;;;;;;;;;-4.00;90.60;;;;;;5010532;28;81905;-45
2024/01/14 13:12:20;;;;;;;;;;;-4.00;90.60;;;;;;5007718;28;81874;-46
2024/01/14 13:14:46;;;;;;;;;;;-4.00;90.50;;;;;;5010823;28;82215;-45
2024/01/14 13:17:12;;;;;;;;;;;-4.00;90.60;;;;;;5009954;28;81991;-46
2024/01/14 13:19:37;;;;;;;;;;;-4.00;90.60;;;;;;5009584;28;82060;-45
2024/01/14 13:22:03;;;;;;;;;;;-4.00;90.60;;;;;;5010460;28;81735;-47
2024/01/14 13:24:29;;;;;;;;;;;-3.90;90.70;;;;;;5009714;28;82102;-46
2024/01/14 13:26:54;;;;;;;;;;;-3.90;90.60;;;;;;5005203;28;82096;-45
2024/01/14 13:29:20;;;;;;;;;;;-3.90;90.60;;;;;;5007905;28;82867;-45
2024/01/14 13:31:45;;;;;;;;;;;-3.90;90.60;;;;;;5010767;28;82625;-46
2024/01/14 13:34:13;;;;;;;;;;;-3.90;90.60;;;;;;5006426;28;82811;-47
2024/01/14 13:36:39;;;;;;;;;;;-3.90;90.70;;;;;;5010065;28;81964;-45
2024/01/14 13:39:04;;;;;;;;;;;-3.90;90.60;;;;;;5010016;28;81992;-46
2024/01/14 13:41:30;;;;;;;;;;;-3.80;90.80;;;;;;5009384;28;82196;-46
2024/01/14 13:43:57;;;;;;;;;;;-3.80;90.70;;;;;;5009886;28;81831;-45
2024/01/14 13:46:23;;;;;;;;;;;-3.80;90.80;;;;;;5006683;28;82916;-45
2024/01/14 13:48:48;;;;;;;;;;;-3.80;90.80;;;;;;5012379;28;82608;-46
2024/01/14 13:51:14;;;;;;;;;;;-3.80;90.80;;;;;;5008647;28;82027;-45
2024/01/14 13:53:39;;;;;;;;;;;-3.80;90.90;;;;;;5009549;28;83388;-45
2024/01/14 13:56:05;;;;;;;;;;;-3.70;90.90;;;;;;5010376;28;82474;-46
2024/01/14 13:58:30;;;;;;;;;;;-3.70;90.80;;;;;;5009146;28;81977;-46
2024/01/14 14:00:57;;;;;;;;;;;-3.70;90.80;;;;;;5009507;28;82574;-46
2024/01/14 14:03:22;;;;;;;;;;;-3.60;91.00;;;;;;5009155;28;82303;-46
2024/01/14 14:05:49;;;;;;;;;;;-3.60;90.70;;;;;;5007891;28;82556;-46
2024/01/14 14:08:15;;;;;;;;;;;-3.60;90.70;;;;;;5006213;28;83507;-46
2024/01/14 14:10:42;;;;;;;;;;;-3.50;90.70;;;;;;5009987;28;81126;-46